This is the latest recevied weather packets stored in our database for station/object EA7AIS-10. If no packets are shown the sender has not sent any weather packets the latest 10 day(s).
| Time | Temp. | Humidity | Pressure | Rain* | Wind** | Luminosity | Snow |
|---|---|---|---|---|---|---|---|
| 1777738581 | 20.56° C | 78% | 1014.1 hPa | - | - | - | - |
| 1777737681 | 21.11° C | 76% | 1014.3 hPa | - | - | - | - |
| 1777736781 | 21.11° C | 75% | 1014.2 hPa | - | - | - | - |
| 1777735881 | 21.11° C | 73% | 1014.3 hPa | - | - | - | - |
| 1777734980 | 21.67° C | 72% | 1014.5 hPa | - | - | - | - |
| 1777734080 | 21.67° C | 71% | 1014.7 hPa | - | - | - | - |
| 1777733180 | 21.67° C | 74% | 1014.8 hPa | - | - | - | - |
| 1777732281 | 21.67° C | 74% | 1015 hPa | - | - | - | - |
| 1777731380 | 21.67° C | 74% | 1015.1 hPa | - | - | - | - |
| 1777730480 | 22.22° C | 72% | 1015.2 hPa | - | - | - | - |
| 1777729580 | 22.22° C | 72% | 1015.5 hPa | - | - | - | - |
| 1777728681 | 22.22° C | 73% | 1015.6 hPa | - | - | - | - |
| 1777727780 | 22.78° C | 71% | 1015.6 hPa | - | - | - | - |
| 1777726880 | 22.78° C | 72% | 1015.8 hPa | - | - | - | - |
| 1777725980 | 21.67° C | 76% | 1015.8 hPa | - | - | - | - |
| 1777725080 | 20.56° C | 82% | 1015.9 hPa | - | - | - | - |
| 1777724180 | 20° C | 83% | 1016 hPa | - | - | - | - |
| 1777723280 | 20° C | 84% | 1016.3 hPa | - | - | - | - |
| 1777722380 | 20° C | 82% | 1016.3 hPa | - | - | - | - |
| 1777721480 | 20.56° C | 83% | 1016.4 hPa | - | - | - | - |
| 1777720579 | 20° C | 85% | 1016.4 hPa | - | - | - | - |
| 1777719679 | 18.89° C | 88% | 1016.5 hPa | - | - | - | - |
| 1777718779 | 18.89° C | 89% | 1016.6 hPa | - | - | - | - |
| 1777717880 | 18.89° C | 89% | 1016.6 hPa | - | - | - | - |
| 1777716979 | 18.89° C | 87% | 1016.6 hPa | - | - | - | - |
* Rain since midnight (hover to see other rain measurements)
** Current wind speed in m/s (hover to see current wind gust speed)